sensor_id;sensor_type;location;lat;lon;timestamp;temperature;humidity
68199;HTU21D;55021;51.554;17.044;2022-08-04T00:04:03;22.96;61.34
68199;HTU21D;55021;51.554;17.044;2022-08-04T00:19:16;22.79;62.53
68199;HTU21D;55021;51.554;17.044;2022-08-04T00:34:18;22.48;63.61
68199;HTU21D;55021;51.554;17.044;2022-08-04T00:49:42;22.43;63.33
68199;HTU21D;55021;51.554;17.044;2022-08-04T01:04:53;22.21;64.98
68199;HTU21D;55021;51.554;17.044;2022-08-04T01:20:04;22.07;64.65
68199;HTU21D;55021;51.554;17.044;2022-08-04T01:35:12;21.82;67.03
68199;HTU21D;55021;51.554;17.044;2022-08-04T01:50:16;21.77;66.68
68199;HTU21D;55021;51.554;17.044;2022-08-04T02:05:21;21.42;69.18
68199;HTU21D;55021;51.554;17.044;2022-08-04T02:20:28;21.31;68.56
68199;HTU21D;55021;51.554;17.044;2022-08-04T02:35:35;21.28;67.76
68199;HTU21D;55021;51.554;17.044;2022-08-04T02:50:38;21.13;69.81
68199;HTU21D;55021;51.554;17.044;2022-08-04T03:05:57;21.08;70.72
68199;HTU21D;55021;51.554;17.044;2022-08-04T03:36:54;20.98;71.46
68199;HTU21D;55021;51.554;17.044;2022-08-04T03:52:07;21.24;69.98
68199;HTU21D;55021;51.554;17.044;2022-08-04T04:23:14;21.13;70.81
68199;HTU21D;55021;51.554;17.044;2022-08-04T04:38:53;21.22;74.18
68199;HTU21D;55021;51.554;17.044;2022-08-04T04:54:05;21.82;72.00
68199;HTU21D;55021;51.554;17.044;2022-08-04T05:09:20;22.44;72.78
68199;HTU21D;55021;51.554;17.044;2022-08-04T05:24:26;23.29;68.95
68199;HTU21D;55021;51.554;17.044;2022-08-04T05:39:35;23.56;60.76
68199;HTU21D;55021;51.554;17.044;2022-08-04T05:54:39;24.60;55.68
68199;HTU21D;55021;51.554;17.044;2022-08-04T06:09:42;25.68;49.73
68199;HTU21D;55021;51.554;17.044;2022-08-04T06:24:47;26.23;49.37
68199;HTU21D;55021;51.554;17.044;2022-08-04T06:39:51;27.49;46.67
68199;HTU21D;55021;51.554;17.044;2022-08-04T06:54:54;30.09;37.72
68199;HTU21D;55021;51.554;17.044;2022-08-04T07:09:57;32.58;32.29
68199;HTU21D;55021;51.554;17.044;2022-08-04T07:25:00;33.81;30.59
68199;HTU21D;55021;51.554;17.044;2022-08-04T07:40:03;34.74;27.72
68199;HTU21D;55021;51.554;17.044;2022-08-04T07:55:06;35.50;26.30
68199;HTU21D;55021;51.554;17.044;2022-08-04T08:10:13;36.84;23.79
68199;HTU21D;55021;51.554;17.044;2022-08-04T08:25:15;36.77;22.68
68199;HTU21D;55021;51.554;17.044;2022-08-04T08:40:28;37.73;21.66
68199;HTU21D;55021;51.554;17.044;2022-08-04T08:55:41;38.83;19.44
68199;HTU21D;55021;51.554;17.044;2022-08-04T09:10:49;38.48;19.15
68199;HTU21D;55021;51.554;17.044;2022-08-04T09:25:59;38.23;18.73
68199;HTU21D;55021;51.554;17.044;2022-08-04T09:41:14;37.41;19.93
68199;HTU21D;55021;51.554;17.044;2022-08-04T09:56:25;39.18;18.70
68199;HTU21D;55021;51.554;17.044;2022-08-04T10:11:40;38.45;18.89
68199;HTU21D;55021;51.554;17.044;2022-08-04T10:26:51;40.08;16.87
68199;HTU21D;55021;51.554;17.044;2022-08-04T10:42:02;40.08;16.29
68199;HTU21D;55021;51.554;17.044;2022-08-04T10:57:11;37.38;20.55
68199;HTU21D;55021;51.554;17.044;2022-08-04T11:12:18;35.96;22.33
68199;HTU21D;55021;51.554;17.044;2022-08-04T11:27:27;35.15;22.79
68199;HTU21D;55021;51.554;17.044;2022-08-04T11:42:36;35.07;24.01
68199;HTU21D;55021;51.554;17.044;2022-08-04T11:57:39;34.89;24.49
68199;HTU21D;55021;51.554;17.044;2022-08-04T12:12:46;34.79;23.46
68199;HTU21D;55021;51.554;17.044;2022-08-04T12:27:55;34.78;23.72
68199;HTU21D;55021;51.554;17.044;2022-08-04T12:43:05;34.32;24.57
68199;HTU21D;55021;51.554;17.044;2022-08-04T12:58:14;34.63;24.55
68199;HTU21D;55021;51.554;17.044;2022-08-04T13:13:20;34.51;23.54
68199;HTU21D;55021;51.554;17.044;2022-08-04T13:28:25;34.11;23.70
68199;HTU21D;55021;51.554;17.044;2022-08-04T13:43:31;34.41;24.25
68199;HTU21D;55021;51.554;17.044;2022-08-04T13:58:34;34.81;22.37
68199;HTU21D;55021;51.554;17.044;2022-08-04T14:13:41;34.47;23.75
68199;HTU21D;55021;51.554;17.044;2022-08-04T14:28:43;34.16;24.61
68199;HTU21D;55021;51.554;17.044;2022-08-04T14:43:48;34.11;23.92
68199;HTU21D;55021;51.554;17.044;2022-08-04T14:59:00;34.23;22.86
68199;HTU21D;55021;51.554;17.044;2022-08-04T15:14:04;33.94;24.18
68199;HTU21D;55021;51.554;17.044;2022-08-04T15:29:11;33.96;24.11
68199;HTU21D;55021;51.554;17.044;2022-08-04T15:59:56;33.48;26.36
68199;HTU21D;55021;51.554;17.044;2022-08-04T16:30:40;33.71;26.26
68199;HTU21D;55021;51.554;17.044;2022-08-04T16:45:45;33.48;27.11
68199;HTU21D;55021;51.554;17.044;2022-08-04T17:00:48;33.26;26.25
68199;HTU21D;55021;51.554;17.044;2022-08-04T17:15:53;32.99;27.04
68199;HTU21D;55021;51.554;17.044;2022-08-04T17:30:57;32.85;29.66
68199;HTU21D;55021;51.554;17.044;2022-08-04T17:46:14;32.53;29.96
68199;HTU21D;55021;51.554;17.044;2022-08-04T18:01:17;32.00;31.31
68199;HTU21D;55021;51.554;17.044;2022-08-04T18:16:19;31.59;31.72
68199;HTU21D;55021;51.554;17.044;2022-08-04T18:31:22;30.77;34.37
68199;HTU21D;55021;51.554;17.044;2022-08-04T18:46:24;30.45;35.70
68199;HTU21D;55021;51.554;17.044;2022-08-04T19:01:27;29.53;37.58
68199;HTU21D;55021;51.554;17.044;2022-08-04T19:16:32;28.73;40.78
68199;HTU21D;55021;51.554;17.044;2022-08-04T19:31:34;27.70;43.55
68199;HTU21D;55021;51.554;17.044;2022-08-04T19:46:37;27.93;43.29
68199;HTU21D;55021;51.554;17.044;2022-08-04T20:01:39;27.45;45.93
68199;HTU21D;55021;51.554;17.044;2022-08-04T20:16:42;26.96;47.22
68199;HTU21D;55021;51.554;17.044;2022-08-04T20:31:44;27.04;46.06
68199;HTU21D;55021;51.554;17.044;2022-08-04T20:46:48;26.69;47.67
68199;HTU21D;55021;51.554;17.044;2022-08-04T21:01:50;26.58;48.18
68199;HTU21D;55021;51.554;17.044;2022-08-04T21:16:53;25.94;50.34
68199;HTU21D;55021;51.554;17.044;2022-08-04T21:31:55;25.98;48.65
68199;HTU21D;55021;51.554;17.044;2022-08-04T21:46:57;25.99;48.37
68199;HTU21D;55021;51.554;17.044;2022-08-04T22:02:00;26.30;46.68
68199;HTU21D;55021;51.554;17.044;2022-08-04T22:17:03;25.92;48.00
68199;HTU21D;55021;51.554;17.044;2022-08-04T22:32:09;25.76;46.22
68199;HTU21D;55021;51.554;17.044;2022-08-04T22:47:15;25.73;45.94
68199;HTU21D;55021;51.554;17.044;2022-08-04T23:02:17;25.54;45.90
68199;HTU21D;55021;51.554;17.044;2022-08-04T23:17:20;25.63;45.18
68199;HTU21D;55021;51.554;17.044;2022-08-04T23:32:23;25.61;45.16
68199;HTU21D;55021;51.554;17.044;2022-08-04T23:47:25;25.53;45.60
